EGLL/LHR METAR and TAF weather

Enter ICAO airport designator
Station Type Date Time Source
EGLL METAR 2019/12/14 05:50 UTC NOAA

EGLL 140550Z AUTO 27019KT 9999 NCD 05/01 Q0988 NOSIG


Station Type Date Time Source
EGLL Decoded METAR 2019/12/14 05:50 UTC NOAA

London / Heathrow Airport, United Kingdom (EGLL) 51-29N 000-27W 0M
Dec 14, 2019 - 12:50 AM EST / 2019.12.14 0550 UTC
Wind: from the W (270 degrees) at 22 MPH (19 KT):0
Visibility: greater than 7 mile(s):0
Temperature: 41 F (5 C)
Dew Point: 33 F (1 C)
Relative Humidity: 75%
Pressure (altimeter): 29.18 in. Hg (0988 hPa)
ob: EGLL 140550Z AUTO 27019KT 9999 NCD 05/01 Q0988 NOSIG
cycle: 6

Station Type Date Time Source
EGLL TAF 2019/12/14 06:07 UTC NOAA

TAF EGLL 140456Z 1406/1512 25014KT 9999 FEW030
TEMPO 1406/1415 26020G32KT PROB40
TEMPO 1408/1411 7000 SHRA BKN014
BECMG 1415/1418 19010KT
TEMPO 1420/1502 7000 SHRA PROB40
TEMPO 1421/1502 3000 +SHRA
BECMG 1423/1502 24016G26KT PROB30
TEMPO 1502/1510 7000 SHRA

Example: see airport list